Meknes, Morocco
Current Conditions -  °F | °C
As of 3:00 PM on Thursday 23 Oct 2014 (Local Time) from GMFM Reporting Station
Clear Clear  
Wind Chill: 91°   Ceiling: Unl
Heat Index: 91°   Visibility: 6mi
Dew Point: 34°   Wind: 5mph
Humidity: 13%   Direction: 340°NNW
Pressure: 30.03"   Gusts: NA
Location:  33.9°N, 5.56°W
Report Text: GMFM 231400Z 34004KT CAVOK 33/01 Q1017 NOSIG
Loading
Personal Weather Stations






























Interactive Weather Map New forecast layout! Learn more

10-Day Weather Forecast

Advertisements
Track Severe Weather on mobile